Time;durP1;ratioP1;P1;durP2;ratioP2;P2;SDS_P1;SDS_P2;PMS_P1;PMS_P2;Temp;Humidity;BMP_temperature;BMP_pressure;BME280_temperature;BME280_humidity;BME280_pressure;Samples;Min_cycle;Max_cycle;Signal;HPM_P1;HPM_P2
2023/07/23 00:02:07;;;;;;;14.10;9.23;;;;;;;12.66;100.00;100587.91;5059678;28;20040;-78
2023/07/23 00:04:33;;;;;;;15.40;9.57;;;;;;;12.61;100.00;100584.94;5044124;28;20036;-79
2023/07/23 00:06:58;;;;;;;18.37;9.67;;;;;;;12.64;100.00;100581.94;5042677;28;20055;-79
2023/07/23 00:09:23;;;;;;;21.00;11.60;;;;;;;12.62;100.00;100580.44;5043234;28;20036;-80
2023/07/23 00:11:49;;;;;;;20.90;10.23;;;;;;;12.66;100.00;100584.41;5042894;28;20064;-79
2023/07/23 00:14:14;;;;;;;17.87;10.53;;;;;;;12.68;100.00;100588.56;5043733;28;20044;-78
2023/07/23 00:16:39;;;;;;;18.23;11.70;;;;;;;12.72;100.00;100582.88;5026999;28;20078;-79
2023/07/23 00:19:05;;;;;;;16.87;10.70;;;;;;;12.72;100.00;100578.34;5026894;28;20021;-79
2023/07/23 00:21:31;;;;;;;18.50;11.30;;;;;;;12.65;100.00;100572.88;5023537;28;20033;-78
2023/07/23 00:23:56;;;;;;;18.15;9.68;;;;;;;12.70;100.00;100576.84;5043137;28;20033;-79
2023/07/23 00:26:22;;;;;;;18.40;10.57;;;;;;;12.62;100.00;100570.56;5043436;28;20361;-79
2023/07/23 00:28:47;;;;;;;19.43;11.90;;;;;;;12.63;100.00;100569.53;5025922;28;20025;-78
2023/07/23 00:31:12;;;;;;;18.27;9.33;;;;;;;12.65;100.00;100570.19;5043243;28;20068;-79
2023/07/23 00:33:38;;;;;;;24.80;11.73;;;;;;;12.65;100.00;100575.53;5042840;28;20330;-80
2023/07/23 00:36:04;;;;;;;17.52;10.52;;;;;;;12.67;100.00;100573.53;5041875;28;20032;-80
2023/07/23 00:38:29;;;;;;;16.23;9.82;;;;;;;12.65;100.00;100567.50;5042164;28;20031;-78
2023/07/23 00:40:56;;;;;;;17.93;10.53;;;;;;;12.68;100.00;100564.47;5042166;28;20025;-79
2023/07/23 00:43:22;;;;;;;20.35;11.07;;;;;;;12.69;100.00;100573.34;5025872;28;20492;-79
2023/07/23 00:45:47;;;;;;;;;;;;;;;12.66;100.00;100569.16;5042318;28;20508;-79
2023/07/23 00:48:13;;;;;;;24.02;11.02;;;;;;;12.70;100.00;100558.94;5029596;28;20273;-80
2023/07/23 00:50:39;;;;;;;18.67;11.82;;;;;;;12.64;100.00;100562.31;5030490;28;20789;-79
2023/07/23 00:53:04;;;;;;;22.38;11.88;;;;;;;12.70;100.00;100560.78;5045877;28;20478;-79
2023/07/23 00:55:31;;;;;;;20.48;11.90;;;;;;;12.71;100.00;100563.25;5045780;28;20111;-79
2023/07/23 00:57:57;;;;;;;19.92;11.75;;;;;;;12.66;100.00;100558.44;5029949;28;20624;-78
2023/07/23 01:00:23;;;;;;;26.02;12.95;;;;;;;12.67;100.00;100546.75;5046179;28;20140;-79
2023/07/23 01:02:48;;;;;;;25.38;12.57;;;;;;;12.75;100.00;100553.84;5045247;28;20052;-79
2023/07/23 01:05:14;;;;;;;22.60;12.37;;;;;;;12.67;100.00;100546.75;5046585;28;20083;-79
2023/07/23 01:07:40;;;;;;;21.60;11.97;;;;;;;12.64;100.00;100543.56;5029597;28;20029;-78
2023/07/23 01:10:09;;;;;;;22.27;13.10;;;;;;;12.58;100.00;100550.50;5046403;28;20037;-79
2023/07/23 01:12:36;;;;;;;21.75;12.48;;;;;;;12.58;100.00;100547.81;5045363;28;20481;-78
2023/07/23 01:15:05;;;;;;;25.73;13.27;;;;;;;12.61;100.00;100555.47;5029865;28;20033;-78
2023/07/23 01:17:31;;;;;;;24.85;12.82;;;;;;;12.54;100.00;100546.50;5046698;28;20478;-79
2023/07/23 01:20:00;;;;;;;;;;;;;;;12.52;100.00;100545.84;5028860;28;20072;-77
2023/07/23 01:22:25;;;;;;;21.50;12.50;;;;;;;12.49;100.00;100545.41;5028906;28;20376;-80
2023/07/23 01:24:59;;;;;;;18.13;10.63;;;;;;;12.52;100.00;100537.81;5044554;28;20064;-78
2023/07/23 01:27:24;;;;;;;25.83;12.05;;;;;;;12.50;100.00;100545.19;5021372;28;20029;-79
2023/07/23 01:29:50;;;;;;;17.03;10.10;;;;;;;12.42;100.00;100531.88;5027904;28;20087;-79
2023/07/23 01:32:15;;;;;;;18.80;11.50;;;;;;;12.45;100.00;100531.53;5029151;28;20043;-79
2023/07/23 01:34:40;;;;;;;20.40;12.13;;;;;;;12.39;100.00;100526.91;5028364;28;20033;-77
2023/07/23 01:37:07;;;;;;;20.23;9.93;;;;;;;12.42;100.00;100515.81;5044492;28;20047;-78
2023/07/23 01:39:35;;;;;;;17.55;11.15;;;;;;;12.34;100.00;100513.19;5044859;28;20493;-80
2023/07/23 01:42:00;;;;;;;19.50;11.50;;;;;;;12.41;100.00;100514.19;5043989;28;20041;-78
2023/07/23 01:44:26;;;;;;;19.13;10.60;;;;;;;12.33;100.00;100506.19;5028659;28;20023;-79
2023/07/23 01:46:51;;;;;;;19.93;12.23;;;;;;;12.35;100.00;100518.38;5046168;28;20490;-78
2023/07/23 01:49:16;;;;;;;17.93;10.40;;;;;;;12.35;100.00;100515.72;5046089;28;20283;-79
2023/07/23 01:51:42;;;;;;;25.00;13.17;;;;;;;12.40;100.00;100512.50;5044182;28;20090;-78
2023/07/23 01:54:07;;;;;;;18.97;10.67;;;;;;;12.40;100.00;100512.50;5027858;28;20414;-77
2023/07/23 01:56:32;;;;;;;18.90;11.40;;;;;;;12.40;100.00;100507.97;5027983;28;20040;-80
2023/07/23 01:58:58;;;;;;;20.00;11.17;;;;;;;12.39;100.00;100510.84;5026637;28;20041;-80
2023/07/23 02:01:23;;;;;;;25.67;12.27;;;;;;;12.40;100.00;100507.13;5044494;28;20017;-79
2023/07/23 02:03:48;;;;;;;24.87;13.30;;;;;;;12.38;100.00;100501.13;5044115;28;20057;-79
2023/07/23 02:06:14;;;;;;;23.80;14.20;;;;;;;12.39;100.00;100494.78;5045989;28;20076;-78
2023/07/23 02:08:39;;;;;;;23.47;12.53;;;;;;;12.43;100.00;100490.69;5044552;28;20029;-78
2023/07/23 02:11:06;;;;;;;26.43;14.13;;;;;;;12.41;100.00;100490.06;5043699;28;20124;-78
2023/07/23 02:13:31;;;;;;;27.90;15.32;;;;;;;12.35;100.00;100488.94;5029596;28;20078;-78
2023/07/23 02:15:57;;;;;;;26.25;14.60;;;;;;;12.40;100.00;100486.53;5030560;28;20232;-79
2023/07/23 02:18:23;;;;;;;29.50;15.77;;;;;;;12.39;100.00;100486.75;5030030;28;20036;-79
2023/07/23 02:20:49;;;;;;;34.08;16.95;;;;;;;12.33;100.00;100472.22;5047955;28;20029;-78
2023/07/23 02:23:19;;;;;;;33.30;17.85;;;;;;;12.42;100.00;100478.34;5029448;28;20025;-78
2023/07/23 02:25:47;;;;;;;31.42;18.20;;;;;;;12.42;100.00;100478.34;5046404;28;20079;-78
2023/07/23 02:28:13;;;;;;;38.90;18.60;;;;;;;12.35;100.00;100467.53;5046520;28;20032;-79
2023/07/23 02:30:38;;;;;;;31.93;17.57;;;;;;;12.43;100.00;100472.81;5029441;28;20039;-78
2023/07/23 02:33:04;;;;;;;38.20;18.50;;;;;;;12.38;100.00;100471.69;5045942;28;20078;-77
2023/07/23 02:35:29;;;;;;;35.40;20.58;;;;;;;12.42;100.00;100471.13;5046418;28;20035;-78
2023/07/23 02:37:54;;;;;;;36.40;20.67;;;;;;;12.43;100.00;100472.81;5029621;28;20108;-78
2023/07/23 02:40:20;;;;;;;39.77;21.00;;;;;;;12.41;100.00;100466.81;5046706;28;20291;-78
2023/07/23 02:42:48;;;;;;;35.67;20.57;;;;;;;12.46;100.00;100463.59;5045757;28;20481;-78
2023/07/23 02:45:13;;;;;;;36.70;23.25;;;;;;;12.43;100.00;100458.56;5046040;28;20033;-80
2023/07/23 02:47:39;;;;;;;39.10;19.33;;;;;;;12.47;100.00;100459.88;5046373;28;20536;-79
2023/07/23 02:50:05;;;;;;;45.67;20.77;;;;;;;12.45;100.00;100452.06;5029354;28;20120;-78
2023/07/23 02:52:31;;;;;;;36.92;19.25;;;;;;;12.50;100.00;100448.81;5028906;28;20116;-78
2023/07/23 02:54:56;;;;;;;37.80;18.77;;;;;;;12.53;100.00;100458.34;5029122;28;20144;-78
2023/07/23 02:57:21;;;;;;;42.37;19.80;;;;;;;12.46;100.00;100443.00;5029306;28;20889;-78
2023/07/23 02:59:47;;;;;;;40.37;20.43;;;;;;;12.46;100.00;100450.19;5029073;28;20843;-77
2023/07/23 03:02:14;;;;;;;35.43;21.03;;;;;;;12.47;100.00;100449.16;5045336;28;20024;-77
2023/07/23 03:04:41;;;;;;;40.33;21.08;;;;;;;12.48;100.00;100450.00;5028963;28;20028;-78
2023/07/23 03:07:09;;;;;;;43.25;22.10;;;;;;;12.53;100.00;100453.81;5044455;28;20035;-78
2023/07/23 03:09:35;;;;;;;47.28;21.38;;;;;;;12.51;100.00;100437.09;5044405;28;20056;-78
2023/07/23 03:12:00;;;;;;;39.13;21.55;;;;;;;12.50;100.00;100434.59;5029027;28;20481;-78
2023/07/23 03:14:26;;;;;;;42.30;23.43;;;;;;;12.51;100.00;100439.78;5045798;28;20037;-78
2023/07/23 03:16:51;;;;;;;39.07;21.67;;;;;;;12.55;100.00;100438.41;5046034;28;20020;-77
2023/07/23 03:19:16;;;;;;;39.10;21.93;;;;;;;12.56;100.00;100431.19;5029479;28;20037;-78
2023/07/23 03:21:42;;;;;;;33.33;21.63;;;;;;;12.59;100.00;100436.16;5045437;28;20028;-78
2023/07/23 03:24:07;;;;;;;37.53;21.63;;;;;;;12.66;100.00;100448.63;5028641;28;20060;-78
2023/07/23 03:26:32;;;;;;;40.47;22.67;;;;;;;12.66;100.00;100447.81;5029307;28;20029;-81
2023/07/23 03:28:58;;;;;;;37.73;21.03;;;;;;;12.67;100.00;100447.63;5028873;28;20291;-80
2023/07/23 03:31:23;;;;;;;34.70;22.50;;;;;;;12.75;100.00;100443.22;5028977;28;20055;-79
2023/07/23 03:33:49;;;;;;;44.10;23.57;;;;;;;12.72;100.00;100430.19;5045594;28;20041;-78
2023/07/23 03:36:14;;;;;;;35.57;21.30;;;;;;;12.77;100.00;100436.66;5046016;28;20562;-77
2023/07/23 03:38:39;;;;;;;33.27;21.50;;;;;;;12.89;100.00;100435.16;5046651;28;20055;-77
2023/07/23 03:41:05;;;;;;;36.13;22.67;;;;;;;12.96;100.00;100435.25;5027368;28;20144;-77
2023/07/23 03:43:30;;;;;;;38.23;22.00;;;;;;;12.94;100.00;100423.88;5045637;28;20032;-78
2023/07/23 03:45:55;;;;;;;35.60;22.53;;;;;;;12.93;100.00;100416.06;5046621;28;20032;-78
2023/07/23 03:48:21;;;;;;;34.23;22.23;;;;;;;12.91;100.00;100412.72;5046224;28;20059;-78
2023/07/23 03:50:46;;;;;;;39.63;23.93;;;;;;;12.92;100.00;100419.72;5045479;28;20029;-78
2023/07/23 03:53:11;;;;;;;36.47;22.37;;;;;;;12.98;100.00;100419.00;5027954;28;20226;-78
2023/07/23 03:55:37;;;;;;;37.97;23.37;;;;;;;12.98;100.00;100400.25;5047148;28;20057;-78
2023/07/23 03:58:02;;;;;;;36.93;22.47;;;;;;;13.06;100.00;100411.69;5030550;28;20040;-78
2023/07/23 04:00:30;;;;;;;37.23;23.57;;;;;;;13.01;100.00;100403.38;5029925;28;20429;-82
2023/07/23 04:02:56;;;;;;;35.88;23.00;;;;;;;13.08;100.00;100408.81;5046555;28;20041;-79
2023/07/23 04:05:21;;;;;;;39.70;25.03;;;;;;;13.05;100.00;100391.25;5029229;28;20035;-79
2023/07/23 04:07:46;;;;;;;36.17;22.43;;;;;;;13.04;100.00;100394.97;5045693;28;20064;-78
2023/07/23 04:10:12;;;;;;;36.93;23.77;;;;;;;13.07;100.00;100391.91;5029009;28;20021;-78
2023/07/23 04:12:37;;;;;;;40.87;25.10;;;;;;;13.13;100.00;100386.81;5045433;28;20033;-79
2023/07/23 04:15:03;;;;;;;45.60;27.60;;;;;;;13.07;100.00;100380.38;5046066;28;20028;-81
2023/07/23 04:17:28;;;;;;;44.35;25.33;;;;;;;13.10;100.00;100383.47;5030319;28;20123;-79
2023/07/23 04:19:54;;;;;;;37.37;24.93;;;;;;;13.08;100.00;100374.81;5029557;28;20025;-78
2023/07/23 04:22:19;;;;;;;42.70;24.37;;;;;;;13.10;100.00;100380.81;5047851;28;20037;-79
2023/07/23 04:24:45;;;;;;;40.60;24.67;;;;;;;13.13;100.00;100382.28;5034456;28;20386;-79
2023/07/23 04:27:10;;;;;;;40.47;25.73;;;;;;;13.14;100.00;100383.13;5034346;28;20033;-78
2023/07/23 04:29:35;;;;;;;40.60;22.80;;;;;;;13.05;100.00;100372.50;5050781;28;20032;-79
2023/07/23 04:32:01;;;;;;;43.47;24.53;;;;;;;13.06;100.00;100362.59;5050148;28;20033;-81
2023/07/23 04:34:26;;;;;;;37.17;22.73;;;;;;;13.09;100.00;100368.44;5050539;28;20024;-78
2023/07/23 04:36:53;;;;;;;38.60;23.83;;;;;;;13.14;100.00;100375.09;5034265;28;20469;-80
2023/07/23 04:39:19;;;;;;;35.77;23.70;;;;;;;13.11;100.00;100368.25;5033131;28;20108;-80
2023/07/23 04:41:45;;;;;;;39.05;23.40;;;;;;;13.05;100.00;100351.06;5049443;28;20636;-80
2023/07/23 04:44:10;;;;;;;36.73;24.03;;;;;;;13.15;100.00;100361.47;5050156;28;20025;-79
2023/07/23 04:46:35;;;;;;;39.17;22.63;;;;;;;13.18;100.00;100355.75;5049895;28;20294;-79
2023/07/23 04:49:01;;;;;;;37.40;22.53;;;;;;;13.15;100.00;100352.63;5048390;28;20033;-79
2023/07/23 04:51:26;;;;;;;42.37;23.37;;;;;;;13.18;100.00;100360.28;5048610;28;20040;-78
2023/07/23 04:53:51;;;;;;;47.47;24.27;;;;;;;13.18;100.00;100344.19;5049007;28;20039;-79
2023/07/23 04:56:17;;;;;;;35.27;22.03;;;;;;;13.22;100.00;100354.34;5050288;28;20037;-79
2023/07/23 04:58:42;;;;;;;34.93;20.67;;;;;;;13.23;100.00;100347.16;5050359;28;20031;-80
2023/07/23 05:01:09;;;;;;;36.53;21.37;;;;;;;13.23;100.00;100353.34;5050243;28;20037;-83
2023/07/23 05:03:35;;;;;;;36.42;20.35;;;;;;;13.22;100.00;100340.13;5032969;28;20501;-78
2023/07/23 05:06:03;;;;;;;30.65;20.95;;;;;;;13.28;100.00;100331.34;5048009;28;20029;-79
2023/07/23 05:08:28;;;;;;;33.58;19.77;;;;;;;13.33;100.00;100333.47;5045709;28;20029;-80
2023/07/23 05:11:01;;;;;;;35.13;19.92;;;;;;;13.28;100.00;100320.63;5047672;28;20048;-79
2023/07/23 05:13:28;;;;;;;34.53;18.70;;;;;;;13.33;100.00;100326.25;5046248;28;20033;-80
2023/07/23 05:15:53;;;;;;;;;;;;;;;13.35;100.00;100326.91;5046898;28;20500;-79
2023/07/23 05:18:18;;;;;;;30.48;18.27;;;;;;;13.32;100.00;100313.84;5047886;28;19917;-79
2023/07/23 05:20:44;;;;;;;32.20;18.20;;;;;;;13.39;100.00;100319.28;5029485;28;20025;-78
2023/07/23 05:23:09;;;;;;;29.27;17.50;;;;;;;13.32;100.00;100300.44;5046914;28;20032;-79
2023/07/23 05:25:34;;;;;;;28.63;18.63;;;;;;;13.44;100.00;100314.19;5029539;28;20403;-80
2023/07/23 05:28:00;;;;;;;32.50;17.10;;;;;;;13.48;100.00;100310.91;5029993;28;20044;-79
2023/07/23 05:30:26;;;;;;;27.48;16.33;;;;;;;13.44;100.00;100304.28;5030003;28;20075;-79
2023/07/23 05:32:51;;;;;;;29.95;16.33;;;;;;;13.50;100.00;100303.50;5045398;28;20033;-79
2023/07/23 05:35:17;;;;;;;27.07;16.90;;;;;;;13.48;100.00;100296.69;5047982;28;20052;-79
2023/07/23 05:37:42;;;;;;;26.33;16.13;;;;;;;13.46;100.00;100296.91;5047409;28;20056;-79
2023/07/23 05:40:08;;;;;;;30.63;17.47;;;;;;;13.45;100.00;100303.25;5046021;28;20029;-79
2023/07/23 05:42:33;;;;;;;25.80;16.17;;;;;;;13.47;100.00;100303.91;5046764;28;20077;-78
2023/07/23 05:44:59;;;;;;;23.83;16.07;;;;;;;13.40;100.00;100294.97;5045805;28;20033;-77
2023/07/23 05:47:24;;;;;;;26.13;16.57;;;;;;;13.39;100.00;100293.31;5029041;28;20478;-78
2023/07/23 05:49:49;;;;;;;23.03;16.23;;;;;;;13.40;100.00;100305.69;5044636;22;20044;-76
2023/07/23 05:52:15;;;;;;;23.63;14.93;;;;;;;13.44;100.00;100312.34;5016537;28;20142;-77
2023/07/23 05:54:40;;;;;;;36.20;16.97;;;;;;;13.43;100.00;100307.97;5047465;28;20403;-78
2023/07/23 05:57:06;;;;;;;23.33;15.47;;;;;;;13.50;100.00;100316.09;5046359;28;20032;-76
2023/07/23 05:59:31;;;;;;;28.37;16.17;;;;;;;13.48;100.00;100318.97;5064643;28;20024;-75
2023/07/23 06:01:56;;;;;;;25.90;16.27;;;;;;;13.48;100.00;100310.91;5044411;28;20143;-77
2023/07/23 06:04:22;;;;;;;21.23;15.17;;;;;;;13.50;100.00;100310.72;5046643;28;20687;-76
2023/07/23 06:06:47;;;;;;;21.25;14.00;;;;;;;13.44;100.00;100306.97;5038392;28;20489;-74
2023/07/23 06:09:13;;;;;;;22.60;14.47;;;;;;;13.48;100.00;100318.13;5036791;28;20103;-76
2023/07/23 06:11:39;;;;;;;19.10;13.20;;;;;;;13.47;100.00;100305.75;5062328;28;20025;-77
2023/07/23 06:14:06;;;;;;;18.70;12.67;;;;;;;13.50;100.00;100311.56;5029086;28;20135;-77
2023/07/23 06:16:32;;;;;;;22.83;13.73;;;;;;;13.57;100.00;100305.44;5059859;28;20436;-75
2023/07/23 06:18:58;;;;;;;22.02;13.05;;;;;;;13.50;100.00;100322.28;5062338;28;20115;-77
2023/07/23 06:21:24;;;;;;;20.27;12.13;;;;;;;13.51;100.00;100312.41;5046594;28;20388;-79
2023/07/23 06:23:49;;;;;;;16.58;12.43;;;;;;;13.48;100.00;100308.22;5057816;28;20029;-78
2023/07/23 06:26:14;;;;;;;21.07;13.30;;;;;;;13.53;100.00;100310.34;5045795;28;20541;-76
2023/07/23 06:28:40;;;;;;;16.67;11.53;;;;;;;13.55;100.00;100315.53;5029909;28;20039;-78
2023/07/23 06:31:06;;;;;;;17.10;12.05;;;;;;;13.49;100.00;100320.63;5044559;28;20021;-79
2023/07/23 06:33:31;;;;;;;15.27;10.80;;;;;;;13.52;100.00;100316.72;5029792;28;20032;-77
2023/07/23 06:35:57;;;;;;;16.77;11.25;;;;;;;13.53;100.00;100313.00;5028092;28;20102;-78
2023/07/23 06:38:22;;;;;;;20.77;10.90;;;;;;;13.48;100.00;100305.53;5046674;28;20096;-76
2023/07/23 06:40:53;;;;;;;17.17;11.00;;;;;;;13.56;100.00;100314.50;5042021;28;20040;-74
2023/07/23 06:43:19;;;;;;;17.92;10.52;;;;;;;13.47;100.00;100311.94;5023311;28;20029;-77
2023/07/23 06:45:45;;;;;;;14.43;9.73;;;;;;;13.43;100.00;100316.03;5042447;28;20069;-74
2023/07/23 06:48:11;;;;;;;;;;;;;;;13.51;100.00;100323.97;5045848;28;20036;-76
2023/07/23 06:50:40;;;;;;;16.23;11.25;;;;;;;13.54;100.00;100319.25;5046363;28;19916;-78
2023/07/23 06:53:05;;;;;;;13.90;10.55;;;;;;;13.57;100.00;100318.84;5061139;28;20171;-76
2023/07/23 06:55:35;;;;;;;12.65;9.85;;;;;;;13.57;100.00;100325.03;5046371;28;20107;-77
2023/07/23 06:58:01;;;;;;;12.90;9.20;;;;;;;13.58;100.00;100325.84;5027974;28;20489;-76
2023/07/23 07:00:26;;;;;;;10.83;9.37;;;;;;;13.59;100.00;100317.63;5043362;28;20023;-77
2023/07/23 07:02:51;;;;;;;14.20;10.17;;;;;;;13.52;100.00;100322.91;5060303;28;20036;-78
2023/07/23 07:05:17;;;;;;;13.27;9.47;;;;;;;13.62;100.00;100325.28;5016583;28;20028;-76
2023/07/23 07:07:42;;;;;;;12.67;8.47;;;;;;;13.61;100.00;100329.00;5026588;28;20040;-75
2023/07/23 07:10:08;;;;;;;15.43;9.10;;;;;;;13.65;100.00;100324.06;5014248;28;20081;-74
2023/07/23 07:12:33;;;;;;;13.95;9.65;;;;;;;13.73;100.00;100329.31;5063113;28;20123;-75
2023/07/23 07:14:58;;;;;;;11.87;8.53;;;;;;;13.69;100.00;100330.69;5039560;28;20404;-77
2023/07/23 07:17:24;;;;;;;10.50;8.27;;;;;;;13.70;100.00;100325.16;5062143;28;20094;-77
2023/07/23 07:19:49;;;;;;;11.60;8.73;;;;;;;13.67;100.00;100317.50;5026699;28;20393;-76
2023/07/23 07:22:18;;;;;;;12.40;8.17;;;;;;;13.69;100.00;100325.34;5016364;28;20039;-76
2023/07/23 07:24:43;;;;;;;11.32;8.43;;;;;;;13.79;100.00;100327.69;5043700;28;20830;-77
2023/07/23 07:27:10;;;;;;;14.30;9.20;;;;;;;13.75;100.00;100326.44;5042749;28;20108;-77
2023/07/23 07:29:39;;;;;;;12.85;9.15;;;;;;;13.80;100.00;100329.38;5040685;28;20016;-77
2023/07/23 07:32:09;;;;;;;10.75;8.13;;;;;;;13.82;100.00;100322.78;5011456;28;20184;-77
2023/07/23 07:34:34;;;;;;;14.48;8.45;;;;;;;13.85;100.00;100314.34;5062469;28;20323;-77
2023/07/23 07:36:59;;;;;;;12.73;8.70;;;;;;;13.87;100.00;100312.28;5042104;28;20430;-78
2023/07/23 07:39:25;;;;;;;11.30;8.00;;;;;;;13.86;100.00;100313.31;5062102;28;20032;-78
2023/07/23 07:41:53;;;;;;;14.20;9.50;;;;;;;13.89;100.00;100304.06;5026057;28;20035;-78
2023/07/23 07:44:19;;;;;;;13.55;8.70;;;;;;;13.92;100.00;100301.78;5004464;28;20448;-77
2023/07/23 07:46:44;;;;;;;11.20;7.65;;;;;;;13.93;100.00;100306.16;5010819;28;20108;-79
2023/07/23 07:49:09;;;;;;;14.27;9.53;;;;;;;13.99;100.00;100309.06;5026719;28;20080;-78
2023/07/23 07:51:36;;;;;;;19.00;8.27;;;;;;;13.88;100.00;100292.50;5014951;28;20071;-78
2023/07/23 07:54:02;;;;;;;12.98;8.20;;;;;;;13.89;100.00;100288.78;5031929;28;20051;-76
2023/07/23 07:56:28;;;;;;;10.60;7.22;;;;;;;13.91;100.00;100281.34;5040917;28;20020;-78
2023/07/23 07:58:53;;;;;;;12.10;7.97;;;;;;;13.97;100.00;100277.06;5025231;28;20051;-77
2023/07/23 08:01:19;;;;;;;15.43;8.20;;;;;;;13.98;100.00;100276.03;5045137;28;20111;-76
2023/07/23 08:03:45;;;;;;;15.48;8.63;;;;;;;14.13;100.00;100274.06;5046264;28;20036;-78
2023/07/23 08:06:11;;;;;;;10.00;7.97;;;;;;;14.19;100.00;100269.78;5029244;28;20025;-77
2023/07/23 08:08:38;;;;;;;14.63;9.00;;;;;;;14.23;100.00;100246.03;5046836;28;20293;-78
2023/07/23 08:11:04;;;;;;;14.63;8.27;;;;;;;14.26;100.00;100262.59;5018307;28;20032;-77
2023/07/23 08:13:31;;;;;;;15.77;9.27;;;;;;;14.39;100.00;100243.00;5047461;28;20086;-78
2023/07/23 08:15:56;;;;;;;;;;;;;;;14.41;100.00;100238.28;5043005;28;20021;-78
2023/07/23 08:18:22;;;;;;;;;;;;;;;14.45;100.00;100233.34;5050334;28;19981;-78
2023/07/23 08:20:47;;;;;;;13.30;8.57;;;;;;;14.36;100.00;100225.44;5051049;28;20336;-78
2023/07/23 08:23:13;;;;;;;11.60;8.48;;;;;;;14.29;100.00;100219.22;5015891;28;20036;-77
2023/07/23 08:25:40;;;;;;;11.10;7.75;;;;;;;14.43;100.00;100219.28;5032183;28;20021;-77
2023/07/23 08:28:06;;;;;;;;;;;;;;;14.40;100.00;100219.66;5033342;28;20064;-76
2023/07/23 08:30:32;;;;;;;14.90;8.00;;;;;;;14.27;100.00;100199.78;5042055;28;19934;-77
2023/07/23 08:32:59;;;;;;;12.45;8.23;;;;;;;14.46;100.00;100203.59;5050624;28;20053;-81
2023/07/23 08:35:25;;;;;;;17.20;8.25;;;;;;;14.43;100.00;100204.00;5030129;28;20048;-77
2023/07/23 08:37:51;;;;;;;;;;;;;;;14.38;100.00;100200.25;5045250;28;20092;-77
2023/07/23 08:40:17;;;;;;;12.25;7.50;;;;;;;14.39;100.00;100199.22;5015591;28;19999;-78
2023/07/23 08:42:55;;;;;;;13.88;8.20;;;;;;;14.54;100.00;100206.13;5045324;28;20401;-80
2023/07/23 08:45:51;;;;;;;11.68;7.72;;;;;;;14.68;100.00;100196.25;5028276;28;20067;-77
2023/07/23 08:48:18;;;;;;;13.70;9.30;;;;;;;14.59;100.00;100184.03;5052190;28;20186;-80
2023/07/23 08:50:49;;;;;;;14.32;8.05;;;;;;;14.47;100.00;100190.97;5058954;28;20029;-76
2023/07/23 08:53:17;;;;;;;15.05;8.68;;;;;;;14.52;100.00;100185.84;5012619;28;20037;-78
2023/07/23 08:55:44;;;;;;;15.68;9.55;;;;;;;14.49;100.00;100187.09;5035031;28;20688;-78
2023/07/23 08:58:15;;;;;;;12.57;8.88;;;;;;;14.58;100.00;100177.00;5053872;28;20124;-77
2023/07/23 09:00:42;;;;;;;10.80;7.25;;;;;;;14.63;100.00;100179.06;5036552;28;20115;-77
2023/07/23 09:03:10;;;;;;;16.25;9.40;;;;;;;14.78;100.00;100172.50;5031863;28;20124;-78
2023/07/23 09:05:35;;;;;;;14.75;7.72;;;;;;;14.86;100.00;100170.66;5024503;28;20047;-79
2023/07/23 09:08:02;;;;;;;12.03;7.77;;;;;;;14.75;100.00;100164.84;5016072;28;20024;-76
2023/07/23 09:10:27;;;;;;;12.45;8.05;;;;;;;14.77;100.00;100162.81;5019151;28;20043;-80
2023/07/23 09:12:53;;;;;;;13.77;8.60;;;;;;;14.69;100.00;100160.28;5055274;28;20033;-77
2023/07/23 09:15:18;;;;;;;11.63;7.70;;;;;;;14.69;100.00;100165.66;5022702;28;20108;-78
2023/07/23 09:17:48;;;;;;;17.17;9.27;;;;;;;14.78;100.00;100159.06;5040316;28;20367;-77
2023/07/23 09:20:18;;;;;;;11.10;7.90;;;;;;;14.68;100.00;100161.34;5024293;28;20086;-79
2023/07/23 09:22:46;;;;;;;13.52;8.95;;;;;;;14.62;100.00;100159.44;5022617;28;20647;-77
2023/07/23 09:25:13;;;;;;;12.25;8.40;;;;;;;14.68;100.00;100157.78;5022900;28;20584;-81
2023/07/23 09:27:40;;;;;;;;;;;;;;;14.50;100.00;100155.69;5006810;28;20025;-77
2023/07/23 09:30:06;;;;;;;16.30;10.05;;;;;;;14.61;100.00;100157.81;5032234;28;19970;-80
2023/07/23 09:32:32;;;;;;;15.73;9.27;;;;;;;14.64;100.00;100157.38;5024056;28;20045;-78
2023/07/23 09:34:58;;;;;;;14.83;9.53;;;;;;;14.74;100.00;100167.75;5038588;28;20030;-78
2023/07/23 09:37:26;;;;;;;13.98;8.90;;;;;;;14.74;100.00;100160.50;5040442;28;20444;-77
2023/07/23 09:39:58;;;;;;;17.58;9.75;;;;;;;14.78;100.00;100183.25;5028717;28;20029;-78
2023/07/23 09:42:24;;;;;;;14.68;9.50;;;;;;;14.75;100.00;100164.84;5047084;28;20029;-78
2023/07/23 09:44:51;;;;;;;16.90;10.43;;;;;;;14.72;100.00;100164.44;5026856;28;20393;-81
2023/07/23 09:47:22;;;;;;;;;;;;;;;14.78;100.00;100171.69;5025897;28;20068;-78
2023/07/23 09:49:47;;;;;;;17.75;10.13;;;;;;;14.73;100.00;100171.47;5037306;28;19923;-78
2023/07/23 09:52:12;;;;;;;14.83;9.33;;;;;;;14.57;100.00;100161.91;5023259;28;20025;-78
2023/07/23 09:54:39;;;;;;;18.80;9.93;;;;;;;14.65;100.00;100166.28;5041631;28;20037;-77
2023/07/23 09:57:06;;;;;;;17.08;11.77;;;;;;;14.77;100.00;100172.69;5023505;28;20029;-77
2023/07/23 09:59:32;;;;;;;17.60;9.93;;;;;;;14.75;100.00;100172.09;5028747;28;20059;-78
2023/07/23 10:01:59;;;;;;;15.32;8.27;;;;;;;14.75;100.00;100161.34;5052366;28;20021;-78
2023/07/23 10:04:29;;;;;;;10.68;7.38;;;;;;;14.69;100.00;100149.53;5039283;28;20040;-77
2023/07/23 10:06:55;;;;;;;11.63;7.65;;;;;;;14.73;100.00;100150.78;5040551;28;20032;-78
2023/07/23 10:09:22;;;;;;;11.57;7.32;;;;;;;14.75;100.00;100146.06;4931955;28;20043;-81
2023/07/23 10:11:47;;;;;;;11.18;8.18;;;;;;;14.81;100.00;100139.03;4865273;28;20508;-81
2023/07/23 10:14:13;;;;;;;11.13;7.40;;;;;;;14.90;100.00;100136.97;5032258;28;20123;-79
2023/07/23 10:16:42;;;;;;;10.83;7.77;;;;;;;14.98;100.00;100134.91;5030069;28;20033;-79
2023/07/23 10:19:08;;;;;;;11.20;7.47;;;;;;;14.82;100.00;100121.88;5040688;28;20036;-81
2023/07/23 10:21:35;;;;;;;11.35;7.78;;;;;;;15.04;100.00;100143.19;4987577;28;20553;-78
2023/07/23 10:24:03;;;;;;;13.80;8.55;;;;;;;14.98;100.00;100131.38;5035084;28;20041;-80
2023/07/23 10:26:30;;;;;;;14.15;9.95;;;;;;;15.03;100.00;100139.66;5036812;28;20052;-76
2023/07/23 10:29:11;;;;;;;13.63;8.68;;;;;;;15.00;100.00;100137.38;5025205;28;20029;-78
2023/07/23 10:31:38;;;;;;;17.40;8.65;;;;;;;15.02;100.00;100143.38;5024283;28;20036;-77
2023/07/23 10:34:26;;;;;;;13.10;8.60;;;;;;;15.05;100.00;100139.44;5035839;28;20040;-76
2023/07/23 10:37:12;;;;;;;11.90;8.15;;;;;;;14.82;100.00;100138.00;5034185;28;20485;-78
2023/07/23 10:39:47;;;;;;;10.82;7.60;;;;;;;14.81;100.00;100125.59;5022676;28;20119;-79
2023/07/23 10:42:41;;;;;;;12.90;8.20;;;;;;;14.77;100.00;100140.44;5009785;28;20033;-79
2023/07/23 10:45:22;;;;;;;15.55;8.05;;;;;;;14.86;100.00;100141.91;5013426;28;20602;-79
2023/07/23 10:47:57;;;;;;;14.05;7.95;;;;;;;14.81;100.00;100144.41;5030565;28;20071;-80
2023/07/23 10:50:24;;;;;;;13.88;7.53;;;;;;;14.73;100.00;100132.00;5030135;28;20043;-80
2023/07/23 10:52:51;;;;;;;13.05;8.15;;;;;;;14.77;100.00;100152.06;5014257;28;20029;-77
2023/07/23 10:55:39;;;;;;;12.05;8.23;;;;;;;14.85;100.00;100136.75;5008887;28;20045;-80
2023/07/23 10:58:13;;;;;;;13.10;8.73;;;;;;;14.78;100.00;100139.44;5017384;28;20509;-78
2023/07/23 11:00:43;;;;;;;17.05;9.60;;;;;;;14.92;100.00;100134.91;5030954;28;20437;-76
2023/07/23 11:03:13;;;;;;;25.48;9.20;;;;;;;15.04;100.00;100156.63;5044717;28;20036;-77
2023/07/23 11:05:40;;;;;;;16.98;9.95;;;;;;;15.06;100.00;100150.00;5029653;28;20067;-76